Time;durP1;ratioP1;P1;durP2;ratioP2;P2;SDS_P1;SDS_P2;PMS_P1;PMS_P2;Temp;Humidity;BMP_temperature;BMP_pressure;BME280_temperature;BME280_humidity;BME280_pressure;Samples;Min_cycle;Max_cycle;Signal;HPM_P1;HPM_P2
2021/11/03 00:01:56;;;;;;;7.68;2.80;;;7.40;99.90;;;;;;5032068;28;20241;-76
2021/11/03 00:04:42;;;;;;;15.32;4.00;;;7.30;99.90;;;;;;5032672;28;20221;-76
2021/11/03 00:07:29;;;;;;;5.57;3.83;;;7.40;99.90;;;;;;5030991;28;20701;-76
2021/11/03 00:10:17;;;;;;;4.47;2.72;;;7.40;99.90;;;;;;5031783;28;20284;-76
2021/11/03 00:13:04;;;;;;;5.83;3.37;;;7.50;99.90;;;;;;5032122;28;20225;-76
2021/11/03 00:15:50;;;;;;;6.95;3.47;;;7.60;99.90;;;;;;5032289;28;20527;-76
2021/11/03 00:18:36;;;;;;;8.83;3.37;;;7.70;99.90;;;;;;5031787;28;20308;-76
2021/11/03 00:21:22;;;;;;;7.80;4.57;;;7.70;99.90;;;;;;5032065;28;20420;-76
2021/11/03 00:24:08;;;;;;;17.20;4.05;;;7.80;99.90;;;;;;5032017;28;20197;-75
2021/11/03 00:26:53;;;;;;;5.97;3.50;;;7.80;99.90;;;;;;5034106;28;20200;-76
2021/11/03 00:29:40;;;;;;;5.20;3.27;;;7.70;99.90;;;;;;5039686;28;20233;-75
2021/11/03 00:32:26;;;;;;;5.10;3.33;;;7.80;99.90;;;;;;5031966;28;20807;-76
2021/11/03 00:35:12;;;;;;;5.03;3.95;;;7.70;99.90;;;;;;5031877;28;20467;-76
2021/11/03 00:37:58;;;;;;;5.13;3.63;;;7.70;99.90;;;;;;5031853;28;20205;-75
2021/11/03 00:40:43;;;;;;;6.07;3.70;;;7.80;99.90;;;;;;5032002;28;20321;-75
2021/11/03 00:43:29;;;;;;;5.55;3.65;;;7.70;99.90;;;;;;5024595;28;20476;-75
2021/11/03 00:46:15;;;;;;;9.20;3.80;;;7.80;99.90;;;;;;5011546;28;20261;-76
2021/11/03 00:49:01;;;;;;;4.27;3.27;;;7.80;99.90;;;;;;5011455;28;20489;-76
2021/11/03 00:51:47;;;;;;;6.63;2.87;;;7.60;99.90;;;;;;5012475;28;20445;-76
2021/11/03 00:54:33;;;;;;;7.63;2.40;;;7.50;99.90;;;;;;5012076;28;20425;-76
2021/11/03 00:57:19;;;;;;;4.97;3.00;;;7.60;99.90;;;;;;5033420;28;20435;-76
2021/11/03 01:00:07;;;;;;;9.03;4.17;;;7.60;99.90;;;;;;5038068;28;20213;-75
2021/11/03 01:02:54;;;;;;;3.88;2.53;;;7.60;99.90;;;;;;5055477;28;20529;-75
2021/11/03 01:05:39;;;;;;;3.90;2.67;;;7.60;99.90;;;;;;5055766;28;20640;-75
2021/11/03 01:08:25;;;;;;;4.28;2.92;;;7.60;99.90;;;;;;5054460;28;20685;-76
2021/11/03 01:11:10;;;;;;;3.97;2.40;;;7.60;99.90;;;;;;5055411;28;20613;-76
2021/11/03 01:13:56;;;;;;;2.92;2.35;;;7.60;99.90;;;;;;5055643;28;20209;-75
2021/11/03 01:16:42;;;;;;;4.00;2.40;;;7.60;99.90;;;;;;5055476;28;20212;-76
2021/11/03 01:19:28;;;;;;;4.30;2.83;;;7.70;99.90;;;;;;5055481;28;20431;-76
2021/11/03 01:22:14;;;;;;;12.33;2.87;;;7.70;99.90;;;;;;5055312;28;20231;-76
2021/11/03 01:25:00;;;;;;;4.88;2.90;;;7.70;99.90;;;;;;5046190;28;20495;-75
2021/11/03 01:27:46;;;;;;;5.82;2.75;;;7.70;99.90;;;;;;5016552;28;20562;-75
2021/11/03 01:30:32;;;;;;;3.83;2.45;;;7.60;99.90;;;;;;5043780;28;20228;-75
2021/11/03 01:33:20;;;;;;;3.83;2.55;;;7.50;99.90;;;;;;5054765;28;20225;-76
2021/11/03 01:36:07;;;;;;;5.93;3.17;;;7.50;99.90;;;;;;5055163;28;20196;-75
2021/11/03 01:38:53;;;;;;;6.10;2.17;;;7.40;99.90;;;;;;5054779;28;20204;-75
2021/11/03 01:41:39;;;;;;;8.43;2.95;;;7.40;99.90;;;;;;5054892;28;20475;-76
2021/11/03 01:44:25;;;;;;;5.00;2.50;;;7.40;99.90;;;;;;5055125;28;20696;-75
2021/11/03 01:47:46;;;;;;;5.50;2.70;;;7.60;99.90;;;;;;5054892;28;20201;-76
2021/11/03 01:50:36;;;;;;;4.10;2.88;;;7.60;99.90;;;;;;5054518;28;20224;-76
2021/11/03 01:53:26;;;;;;;5.75;2.80;;;7.60;99.90;;;;;;5054659;28;20216;-76
2021/11/03 01:56:12;;;;;;;5.35;2.35;;;7.60;99.90;;;;;;5054848;28;20193;-76
2021/11/03 01:59:02;;;;;;;6.50;2.75;;;7.60;99.90;;;;;;5047571;28;20287;-75
2021/11/03 02:01:48;;;;;;;8.05;3.15;;;7.60;99.90;;;;;;5046097;28;20585;-75
2021/11/03 02:04:34;;;;;;;4.93;2.60;;;7.50;99.90;;;;;;5054523;28;20593;-76
2021/11/03 02:07:27;;;;;;;6.50;2.30;;;7.50;99.90;;;;;;5053195;28;20320;-76
2021/11/03 02:10:15;;;;;;;2.92;2.22;;;7.60;99.90;;;;;;5054020;28;20220;-76
2021/11/03 02:13:01;;;;;;;7.53;2.42;;;7.60;99.90;;;;;;5053609;28;20737;-76
2021/11/03 02:15:47;;;;;;;3.47;2.15;;;7.60;99.90;;;;;;5050464;28;20307;-76
2021/11/03 02:18:35;;;;;;;4.05;2.40;;;7.70;99.90;;;;;;5014204;28;20257;-76
2021/11/03 02:21:26;;;;;;;10.32;2.40;;;7.70;99.90;;;;;;5014552;28;20206;-75
2021/11/03 02:24:20;;;;;;;3.63;2.37;;;7.80;99.90;;;;;;5017011;28;20226;-75
2021/11/03 02:27:07;;;;;;;5.53;2.35;;;7.80;99.90;;;;;;5034334;28;20499;-76
2021/11/03 02:29:53;;;;;;;3.78;2.30;;;7.80;99.90;;;;;;5041701;28;20226;-75
2021/11/03 02:32:41;;;;;;;3.28;2.60;;;7.80;99.90;;;;;;5032770;28;20230;-75
2021/11/03 02:35:27;;;;;;;3.22;2.35;;;7.80;99.90;;;;;;5029263;28;20324;-76
2021/11/03 02:38:23;;;;;;;3.20;2.60;;;7.80;99.90;;;;;;5053401;28;20295;-75
2021/11/03 02:41:11;;;;;;;4.25;2.85;;;7.80;99.90;;;;;;5053588;28;20887;-75
2021/11/03 02:44:04;;;;;;;4.57;3.28;;;7.80;99.90;;;;;;5053969;28;20200;-75
2021/11/03 02:46:49;;;;;;;4.85;2.40;;;7.80;99.90;;;;;;5053883;28;20208;-75
2021/11/03 02:49:36;;;;;;;3.25;2.40;;;7.90;99.90;;;;;;5053388;28;20713;-76
2021/11/03 02:52:25;;;;;;;5.22;3.03;;;7.90;99.90;;;;;;5053649;28;20224;-75
2021/11/03 02:55:13;;;;;;;6.53;3.30;;;7.90;99.90;;;;;;5053601;28;20247;-75
2021/11/03 02:57:59;;;;;;;6.20;3.10;;;7.90;99.90;;;;;;5051370;28;20423;-75
2021/11/03 03:00:46;;;;;;;3.90;2.67;;;8.00;99.90;;;;;;5044336;28;20201;-76
2021/11/03 03:03:32;;;;;;;5.57;3.50;;;8.10;99.90;;;;;;5053320;28;20217;-75
2021/11/03 03:06:24;;;;;;;6.20;3.60;;;8.10;99.90;;;;;;5052507;28;20199;-75
2021/11/03 03:09:10;;;;;;;4.53;3.38;;;8.20;99.90;;;;;;5052934;28;20431;-76
2021/11/03 03:12:01;;;;;;;4.65;3.72;;;8.20;99.90;;;;;;5053150;28;20585;-76
2021/11/03 03:14:50;;;;;;;3.93;3.47;;;8.20;99.90;;;;;;5053379;28;20271;-76
2021/11/03 03:17:37;;;;;;;8.80;3.67;;;8.20;99.90;;;;;;5053151;28;20995;-76
2021/11/03 03:20:23;;;;;;;6.55;4.10;;;8.20;99.90;;;;;;5052865;28;20411;-76
2021/11/03 03:23:09;;;;;;;5.80;3.92;;;8.20;99.90;;;;;;5046968;28;20598;-75
2021/11/03 03:25:59;;;;;;;6.95;4.40;;;8.30;99.90;;;;;;5032756;28;20583;-75
2021/11/03 03:28:46;;;;;;;4.82;3.90;;;8.30;99.90;;;;;;5035645;28;20580;-76
2021/11/03 03:31:32;;;;;;;5.18;4.00;;;8.30;99.90;;;;;;5044490;28;20220;-76
2021/11/03 03:34:24;;;;;;;5.00;4.50;;;8.30;99.90;;;;;;5052887;28;20213;-76
2021/11/03 03:37:10;;;;;;;5.60;4.07;;;8.40;99.90;;;;;;5052706;28;20832;-76
2021/11/03 03:39:56;;;;;;;5.82;4.35;;;8.40;99.90;;;;;;5052398;28;20439;-75
2021/11/03 03:42:41;;;;;;;6.07;4.70;;;8.40;99.90;;;;;;5053127;28;20221;-76
2021/11/03 03:45:27;;;;;;;6.70;4.78;;;8.40;99.90;;;;;;5052729;28;20203;-76
2021/11/03 03:48:13;;;;;;;9.63;4.90;;;8.30;99.90;;;;;;5052124;28;20204;-75
2021/11/03 03:51:00;;;;;;;14.85;5.20;;;8.30;99.90;;;;;;5052463;28;20463;-76
2021/11/03 03:53:46;;;;;;;8.77;5.05;;;8.40;99.90;;;;;;5052511;28;20259;-76
2021/11/03 03:56:32;;;;;;;9.20;5.17;;;8.40;99.90;;;;;;5052436;28;20204;-76
2021/11/03 03:59:17;;;;;;;8.53;5.40;;;8.40;99.90;;;;;;5046125;28;20810;-76
2021/11/03 04:02:04;;;;;;;7.53;4.50;;;8.40;99.90;;;;;;5039400;28;20824;-75
2021/11/03 04:04:49;;;;;;;7.17;5.03;;;8.40;99.90;;;;;;5052334;28;20716;-76
2021/11/03 04:07:37;;;;;;;10.83;4.90;;;8.40;99.90;;;;;;5051359;28;20435;-76
2021/11/03 04:10:22;;;;;;;7.90;4.80;;;8.50;99.90;;;;;;5051746;28;20543;-76
2021/11/03 04:13:08;;;;;;;7.80;5.30;;;8.50;99.90;;;;;;5052054;28;20410;-76
2021/11/03 04:15:56;;;;;;;6.17;4.27;;;8.50;99.90;;;;;;5052209;28;20765;-76
2021/11/03 04:18:42;;;;;;;9.03;5.60;;;8.60;99.90;;;;;;5051606;28;20431;-76
2021/11/03 04:21:28;;;;;;;5.47;4.40;;;8.60;99.90;;;;;;5033573;28;20492;-75
2021/11/03 04:24:15;;;;;;;6.32;4.65;;;8.70;99.90;;;;;;5010817;28;20425;-76
2021/11/03 04:27:01;;;;;;;7.13;4.20;;;8.70;99.90;;;;;;5012380;28;20288;-75
2021/11/03 04:29:47;;;;;;;11.17;5.00;;;8.70;99.90;;;;;;5036620;28;20961;-76
2021/11/03 04:32:33;;;;;;;6.50;4.60;;;8.70;99.90;;;;;;5049445;28;20447;-76
2021/11/03 04:35:19;;;;;;;5.37;4.70;;;8.70;99.90;;;;;;5051681;28;20917;-76
2021/11/03 04:38:05;;;;;;;5.20;4.40;;;8.70;99.90;;;;;;5051837;28;20435;-75
2021/11/03 04:40:52;;;;;;;6.70;4.87;;;8.70;99.90;;;;;;5051682;28;20414;-75
2021/11/03 04:43:37;;;;;;;10.33;5.30;;;8.70;99.90;;;;;;5052118;28;20561;-76
2021/11/03 04:46:24;;;;;;;6.90;4.70;;;8.60;99.90;;;;;;5051703;28;20451;-75
2021/11/03 04:49:10;;;;;;;5.95;4.35;;;8.70;99.90;;;;;;5051368;28;20420;-75
2021/11/03 04:51:56;;;;;;;14.90;4.10;;;8.70;99.90;;;;;;5051493;28;20216;-76
2021/11/03 04:54:42;;;;;;;5.55;4.35;;;8.70;99.90;;;;;;5051691;28;20796;-76
2021/11/03 04:57:29;;;;;;;5.53;4.53;;;8.70;99.90;;;;;;5051567;28;20212;-75
2021/11/03 05:00:19;;;;;;;5.57;4.70;;;8.70;99.90;;;;;;5033255;28;20276;-76
2021/11/03 05:03:05;;;;;;;5.50;4.50;;;8.70;99.90;;;;;;5012331;28;20448;-76
2021/11/03 05:05:54;;;;;;;6.32;3.65;;;8.70;99.90;;;;;;5011795;28;20805;-76
2021/11/03 05:08:40;;;;;;;7.53;3.70;;;8.60;99.90;;;;;;5011915;28;20214;-76
2021/11/03 05:11:25;;;;;;;4.17;3.50;;;8.60;99.90;;;;;;5011735;28;20601;-76
2021/11/03 05:14:12;;;;;;;5.70;4.13;;;8.60;99.90;;;;;;5011945;28;20513;-76
2021/11/03 05:16:58;;;;;;;5.80;3.97;;;8.60;99.90;;;;;;5011751;28;20935;-76
2021/11/03 05:19:44;;;;;;;6.57;4.30;;;8.60;99.90;;;;;;5011845;28;20687;-76
2021/11/03 05:22:30;;;;;;;6.63;4.40;;;8.70;99.90;;;;;;5031342;28;20444;-75
2021/11/03 05:25:18;;;;;;;9.10;4.67;;;8.70;99.90;;;;;;5031578;28;20425;-76
2021/11/03 05:28:04;;;;;;;5.00;3.80;;;8.70;99.90;;;;;;5031407;28;20396;-76
2021/11/03 05:30:52;;;;;;;7.70;4.07;;;8.60;99.90;;;;;;5031310;28;20464;-75
2021/11/03 05:33:37;;;;;;;4.30;3.57;;;8.60;99.90;;;;;;5031297;28;20478;-76
2021/11/03 05:36:26;;;;;;;9.03;4.13;;;8.60;99.90;;;;;;5031451;28;20428;-76
2021/11/03 05:39:16;;;;;;;4.77;4.10;;;8.60;99.90;;;;;;5031018;28;20425;-76
2021/11/03 05:42:02;;;;;;;5.33;3.90;;;8.60;99.90;;;;;;5031132;28;20455;-76
2021/11/03 05:44:48;;;;;;;5.70;3.73;;;8.60;99.90;;;;;;5031664;28;20437;-76
2021/11/03 05:47:35;;;;;;;6.33;5.30;;;8.70;99.90;;;;;;5032236;28;20791;-76
2021/11/03 05:50:24;;;;;;;5.10;3.90;;;8.60;99.90;;;;;;5034449;28;20956;-76
2021/11/03 05:53:10;;;;;;;4.65;3.63;;;8.70;99.90;;;;;;5034706;28;20575;-76
2021/11/03 05:55:55;;;;;;;4.93;3.40;;;8.70;99.90;;;;;;5034909;28;20210;-76
2021/11/03 05:58:41;;;;;;;3.80;3.40;;;8.80;99.90;;;;;;5035544;28;20201;-76
2021/11/03 06:01:27;;;;;;;6.00;3.87;;;8.80;99.90;;;;;;5046111;28;20446;-76
2021/11/03 06:04:14;;;;;;;4.33;3.60;;;8.80;99.90;;;;;;5054470;28;20422;-76
2021/11/03 06:06:59;;;;;;;4.07;3.13;;;8.80;99.90;;;;;;5053328;28;20570;-76
2021/11/03 06:09:45;;;;;;;7.83;3.60;;;8.80;99.90;;;;;;5040083;28;20498;-76
2021/11/03 06:12:31;;;;;;;12.00;3.23;;;8.70;99.90;;;;;;5013630;28;20954;-75
2021/11/03 06:15:17;;;;;;;3.73;2.90;;;8.80;99.90;;;;;;5014463;28;20425;-76
2021/11/03 06:18:03;;;;;;;4.90;2.50;;;8.70;99.90;;;;;;5014404;28;20437;-76
2021/11/03 06:20:50;;;;;;;5.30;2.60;;;8.80;99.90;;;;;;5014807;28;21095;-76
2021/11/03 06:23:36;;;;;;;7.60;3.13;;;8.80;99.90;;;;;;5014626;28;20441;-76
2021/11/03 06:26:23;;;;;;;3.03;2.70;;;8.80;99.90;;;;;;5014798;28;20478;-76
2021/11/03 06:29:09;;;;;;;3.93;2.60;;;8.80;99.90;;;;;;5031858;28;20453;-76
2021/11/03 06:31:55;;;;;;;3.37;2.50;;;8.70;99.90;;;;;;5038648;28;20467;-76
2021/11/03 06:34:41;;;;;;;5.07;2.50;;;8.80;99.90;;;;;;5053856;28;20987;-76
2021/11/03 06:37:28;;;;;;;9.00;2.67;;;8.70;99.90;;;;;;5054060;28;20419;-76
2021/11/03 06:40:18;;;;;;;4.63;1.80;;;8.80;99.90;;;;;;5053458;28;20539;-76
2021/11/03 06:43:05;;;;;;;3.67;2.50;;;8.70;99.90;;;;;;5053812;28;20267;-76
2021/11/03 06:45:51;;;;;;;4.40;2.57;;;8.80;99.90;;;;;;5053771;28;20932;-75
2021/11/03 06:48:37;;;;;;;4.00;2.13;;;8.80;99.90;;;;;;5053650;28;20474;-76
2021/11/03 06:51:23;;;;;;;3.40;2.22;;;8.80;99.90;;;;;;5053764;28;20580;-76
2021/11/03 06:54:10;;;;;;;3.22;2.30;;;8.70;99.90;;;;;;5053756;28;20263;-76
2021/11/03 06:56:56;;;;;;;3.60;2.30;;;8.80;99.90;;;;;;5053629;28;20492;-76
2021/11/03 06:59:44;;;;;;;3.10;2.03;;;8.90;99.90;;;;;;5044836;28;20514;-76
2021/11/03 07:02:30;;;;;;;6.60;2.30;;;8.90;99.90;;;;;;5050473;28;21104;-76
2021/11/03 07:05:15;;;;;;;3.67;3.03;;;8.90;99.90;;;;;;5053523;28;20790;-76
2021/11/03 07:08:01;;;;;;;3.93;2.20;;;8.90;99.90;;;;;;5051877;28;20419;-76
2021/11/03 07:10:50;;;;;;;3.20;1.80;;;9.00;99.90;;;;;;5053335;28;20471;-76
2021/11/03 07:13:37;;;;;;;3.30;1.80;;;8.90;99.90;;;;;;5053377;28;20746;-76
2021/11/03 07:16:22;;;;;;;3.03;1.60;;;8.90;99.90;;;;;;5053398;28;20477;-76
2021/11/03 07:19:08;;;;;;;2.47;1.53;;;8.90;99.90;;;;;;5033844;28;20511;-76
2021/11/03 07:21:54;;;;;;;3.60;1.60;;;8.80;99.90;;;;;;5033273;28;20436;-76
2021/11/03 07:24:40;;;;;;;4.03;1.70;;;8.90;99.90;;;;;;5033276;28;20424;-76
2021/11/03 07:27:27;;;;;;;2.07;1.70;;;9.00;99.90;;;;;;5033054;28;20792;-76
2021/11/03 07:30:14;;;;;;;5.53;1.55;;;9.00;99.90;;;;;;5035674;28;20421;-76
2021/11/03 07:33:00;;;;;;;4.88;1.13;;;9.00;99.90;;;;;;5013113;28;20217;-76
2021/11/03 07:35:47;;;;;;;3.23;1.50;;;9.00;99.90;;;;;;5013277;28;20236;-76
2021/11/03 07:38:33;;;;;;;9.10;1.30;;;9.00;99.90;;;;;;5012660;28;20772;-76
2021/11/03 07:41:18;;;;;;;3.13;1.53;;;9.10;99.90;;;;;;5013054;28;20492;-76
2021/11/03 07:44:06;;;;;;;3.93;1.33;;;9.00;99.90;;;;;;5012905;28;20429;-76
2021/11/03 07:46:51;;;;;;;2.60;1.30;;;9.00;99.90;;;;;;5012979;28;20492;-77
2021/11/03 07:49:37;;;;;;;4.33;1.20;;;9.00;99.90;;;;;;5012492;28;20429;-76
2021/11/03 07:52:23;;;;;;;3.10;1.60;;;8.90;99.90;;;;;;5012873;28;20481;-76
2021/11/03 07:55:09;;;;;;;3.17;1.50;;;9.00;99.90;;;;;;5012861;28;20425;-76
2021/11/03 07:57:54;;;;;;;2.42;1.30;;;9.00;99.90;;;;;;5014199;28;21027;-76
2021/11/03 08:00:42;;;;;;;2.83;1.37;;;9.00;99.90;;;;;;5033319;28;20200;-76
2021/11/03 08:03:28;;;;;;;2.80;1.20;;;9.00;99.90;;;;;;5031370;28;20527;-76
2021/11/03 08:06:14;;;;;;;4.13;1.43;;;9.00;99.90;;;;;;5032462;28;20395;-76
2021/11/03 08:09:05;;;;;;;4.07;1.43;;;8.90;99.90;;;;;;5032168;28;20420;-76
2021/11/03 08:11:51;;;;;;;7.67;3.47;;;9.00;99.90;;;;;;5031754;28;20469;-76
2021/11/03 08:14:37;;;;;;;2.10;1.20;;;8.90;99.90;;;;;;5032380;28;20420;-76
2021/11/03 08:17:26;;;;;;;1.97;1.00;;;9.00;99.90;;;;;;5032102;28;20950;-76
2021/11/03 08:20:17;;;;;;;5.27;2.10;;;9.00;99.90;;;;;;5031675;28;20429;-76
2021/11/03 08:23:03;;;;;;;8.10;1.87;;;9.10;99.90;;;;;;5032186;28;20479;-76
2021/11/03 08:25:48;;;;;;;2.40;1.30;;;9.20;99.90;;;;;;5032102;28;20399;-76
2021/11/03 08:28:34;;;;;;;2.60;1.43;;;9.10;99.90;;;;;;5033153;28;20395;-76
2021/11/03 08:31:20;;;;;;;4.53;2.00;;;9.20;99.90;;;;;;5043313;28;20467;-76
2021/11/03 08:34:09;;;;;;;6.68;1.63;;;9.20;99.90;;;;;;5051831;28;21002;-76
2021/11/03 08:36:55;;;;;;;4.40;1.63;;;9.30;99.90;;;;;;5051939;28;20292;-76
2021/11/03 08:39:44;;;;;;;2.77;1.20;;;9.40;99.90;;;;;;5051475;28;20937;-76
2021/11/03 08:42:30;;;;;;;5.63;1.53;;;9.40;99.90;;;;;;5051722;28;20414;-76
2021/11/03 08:45:15;;;;;;;2.10;1.30;;;9.40;99.90;;;;;;5051579;28;20462;-76
2021/11/03 08:48:01;;;;;;;2.40;1.40;;;9.50;99.90;;;;;;5051556;28;20419;-76
2021/11/03 08:50:49;;;;;;;2.17;1.13;;;9.50;99.90;;;;;;5051561;28;20423;-76
2021/11/03 08:53:35;;;;;;;3.37;1.70;;;9.50;99.90;;;;;;5051829;28;21127;-75
2021/11/03 08:56:20;;;;;;;3.57;1.20;;;9.50;99.90;;;;;;5051602;28;20424;-76
2021/11/03 08:59:07;;;;;;;5.90;1.13;;;9.50;99.90;;;;;;5044439;28;20427;-76
2021/11/03 09:01:53;;;;;;;2.10;1.30;;;9.50;99.90;;;;;;5035834;28;20502;-76
2021/11/03 09:04:39;;;;;;;5.87;1.20;;;9.50;99.90;;;;;;5051619;28;20482;-76
2021/11/03 09:07:26;;;;;;;4.80;1.45;;;9.50;99.90;;;;;;5050291;28;20790;-76
2021/11/03 09:10:17;;;;;;;2.63;1.47;;;9.50;99.90;;;;;;5051107;28;20701;-77
2021/11/03 09:13:03;;;;;;;4.33;1.40;;;9.50;99.90;;;;;;5051171;28;20470;-76
2021/11/03 09:15:49;;;;;;;6.53;1.47;;;9.50;99.90;;;;;;5036768;28;20424;-76
2021/11/03 09:18:36;;;;;;;1.40;0.90;;;9.60;99.90;;;;;;5031165;28;20436;-76
2021/11/03 09:21:23;;;;;;;10.33;1.10;;;9.60;99.90;;;;;;5032373;28;20481;-76
2021/11/03 09:24:10;;;;;;;2.60;1.40;;;9.60;99.90;;;;;;5035447;28;20798;-76
2021/11/03 09:26:55;;;;;;;4.27;1.67;;;9.60;99.90;;;;;;5035308;28;20551;-76
2021/11/03 09:29:43;;;;;;;2.33;1.43;;;9.60;99.90;;;;;;5043131;28;20498;-76
2021/11/03 09:32:31;;;;;;;2.10;1.17;;;9.60;99.90;;;;;;5052090;28;20840;-76
2021/11/03 09:35:17;;;;;;;5.20;1.43;;;9.60;99.90;;;;;;5055297;28;20423;-76
2021/11/03 09:38:04;;;;;;;5.30;1.70;;;9.60;99.90;;;;;;5054875;28;20427;-76
2021/11/03 09:40:55;;;;;;;8.77;1.30;;;9.60;99.90;;;;;;5055099;28;20419;-76
2021/11/03 09:43:44;;;;;;;6.10;1.40;;;9.80;99.90;;;;;;5054954;28;20623;-76
2021/11/03 09:46:37;;;;;;;4.37;1.30;;;9.80;99.90;;;;;;5054910;28;20494;-76
2021/11/03 09:49:30;;;;;;;2.80;1.63;;;9.70;99.90;;;;;;5015704;28;20449;-76
2021/11/03 09:52:18;;;;;;;4.70;1.50;;;9.80;99.90;;;;;;5014965;28;20477;-76
2021/11/03 09:55:20;;;;;;;4.83;1.37;;;9.80;99.90;;;;;;5015167;28;20422;-76
2021/11/03 09:58:28;;;;;;;2.40;1.30;;;9.90;99.90;;;;;;5017611;28;20428;-77
2021/11/03 10:01:21;;;;;;;6.43;1.80;;;9.90;99.90;;;;;;5037673;28;20436;-76
2021/11/03 10:04:19;;;;;;;3.40;1.83;;;9.90;99.90;;;;;;5034486;28;20444;-76
2021/11/03 10:07:12;;;;;;;2.10;1.40;;;10.00;99.90;;;;;;5032988;28;20503;-76
2021/11/03 10:09:58;;;;;;;4.03;1.87;;;10.00;99.90;;;;;;5034014;28;20980;-76
2021/11/03 10:12:43;;;;;;;3.40;1.20;;;10.00;99.90;;;;;;5034404;28;20449;-75
2021/11/03 10:15:32;;;;;;;2.50;1.60;;;10.00;99.90;;;;;;5034544;28;20470;-76
2021/11/03 10:18:20;;;;;;;4.57;1.57;;;10.00;99.90;;;;;;5034037;28;20449;-76
2021/11/03 10:21:20;;;;;;;3.27;1.80;;;10.10;99.90;;;;;;5034236;28;21016;-76
2021/11/03 10:24:28;;;;;;;4.23;1.90;;;10.10;99.90;;;;;;5034354;28;20395;-76
2021/11/03 10:27:21;;;;;;;5.40;1.60;;;10.00;99.90;;;;;;5034187;28;20590;-76
2021/11/03 10:30:22;;;;;;;2.00;1.50;;;10.10;99.90;;;;;;5041982;28;20491;-76
2021/11/03 10:33:18;;;;;;;4.70;1.77;;;10.10;99.90;;;;;;5013657;28;20826;-76
2021/11/03 10:36:15;;;;;;;4.50;1.77;;;10.10;99.90;;;;;;5014300;28;20395;-76
2021/11/03 10:39:08;;;;;;;3.50;1.83;;;10.20;99.90;;;;;;5014330;28;20561;-76
2021/11/03 10:41:58;;;;;;;5.93;2.07;;;10.30;99.90;;;;;;5014079;28;20572;-76
2021/11/03 10:44:44;;;;;;;5.00;2.10;;;10.20;99.90;;;;;;5014162;28;20421;-76
2021/11/03 10:47:30;;;;;;;3.10;2.20;;;10.20;99.90;;;;;;5014380;28;20421;-76
2021/11/03 10:50:36;;;;;;;4.17;2.17;;;10.30;99.90;;;;;;5013593;28;20519;-76
2021/11/03 10:53:25;;;;;;;3.10;1.93;;;10.40;99.90;;;;;;5014106;28;20469;-75
2021/11/03 10:56:16;;;;;;;3.07;1.97;;;10.40;99.90;;;;;;5013727;28;20513;-76
2021/11/03 10:59:06;;;;;;;2.23;1.70;;;10.40;99.90;;;;;;5029456;28;20443;-77
2021/11/03 11:01:54;;;;;;;2.83;1.70;;;10.50;99.90;;;;;;5063119;22;20425;-75
2021/11/03 11:04:41;;;;;;;4.53;1.90;;;10.60;99.90;;;;;;5032959;28;20482;-75
2021/11/03 11:07:34;;;;;;;2.90;1.80;;;10.60;99.90;;;;;;5032324;28;20831;-75
2021/11/03 11:10:24;;;;;;;3.03;1.80;;;10.70;99.90;;;;;;5033251;28;20396;-75
2021/11/03 11:13:19;;;;;;;5.17;2.43;;;10.90;99.90;;;;;;5032989;28;20484;-76
2021/11/03 11:16:09;;;;;;;2.83;1.67;;;11.00;99.90;;;;;;5033422;28;20439;-75
2021/11/03 11:19:04;;;;;;;4.20;2.67;;;11.00;99.90;;;;;;5032996;28;20421;-76
2021/11/03 11:21:53;;;;;;;3.80;2.43;;;11.10;99.90;;;;;;5033051;28;20391;-75
2021/11/03 11:24:46;;;;;;;1.90;1.20;;;11.10;99.90;;;;;;5033367;28;20417;-75
2021/11/03 11:27:38;;;;;;;3.30;1.77;;;11.10;99.90;;;;;;5032951;28;20420;-76
2021/11/03 11:30:31;;;;;;;2.23;1.33;;;11.10;99.90;;;;;;5037407;28;20559;-76
2021/11/03 11:33:25;;;;;;;7.27;2.30;;;11.20;99.90;;;;;;5013066;28;20548;-76
2021/11/03 11:36:23;;;;;;;2.30;1.37;;;11.20;99.90;;;;;;5009588;28;20428;-75
2021/11/03 11:39:21;;;;;;;3.00;1.70;;;11.00;99.90;;;;;;5011006;28;20496;-76
2021/11/03 11:42:16;;;;;;;2.50;1.40;;;11.10;99.90;;;;;;5020720;28;20527;-76
2021/11/03 11:45:12;;;;;;;2.87;1.87;;;11.10;99.90;;;;;;5025364;28;20415;-75
2021/11/03 11:48:01;;;;;;;2.10;1.20;;;11.20;99.90;;;;;;5032981;28;20464;-76
2021/11/03 11:50:50;;;;;;;2.30;1.40;;;11.10;99.90;;;;;;5032739;28;20552;-75
2021/11/03 11:53:40;;;;;;;2.93;1.37;;;11.20;99.90;;;;;;5032513;28;20464;-75
2021/11/03 11:56:27;;;;;;;2.13;1.13;;;11.10;99.90;;;;;;5032619;28;20559;-76
2021/11/03 11:59:22;;;;;;;2.50;1.47;;;10.80;99.90;;;;;;5038888;28;20439;-76
2021/11/03 12:02:20;;;;;;;3.33;1.30;;;10.80;99.90;;;;;;5040841;28;20425;-75
2021/11/03 12:05:26;;;;;;;2.10;1.27;;;10.80;99.90;;;;;;5052200;28;20517;-75
2021/11/03 12:08:22;;;;;;;2.60;1.40;;;10.90;99.90;;;;;;5050356;28;20411;-76
2021/11/03 12:11:22;;;;;;;2.40;1.27;;;10.90;99.90;;;;;;5041116;28;20444;-76
2021/11/03 12:14:26;;;;;;;4.30;1.53;;;11.00;99.90;;;;;;5032157;28;20411;-75
2021/11/03 12:17:34;;;;;;;11.03;2.03;;;10.90;99.90;;;;;;5032236;28;20792;-75
2021/11/03 12:20:49;;;;;;;3.63;1.37;;;10.90;99.90;;;;;;5031697;28;20428;-75
2021/11/03 12:23:55;;;;;;;2.50;1.50;;;10.80;99.90;;;;;;5032112;28;20556;-75
2021/11/03 12:26:44;;;;;;;2.43;1.63;;;10.80;99.90;;;;;;5032076;28;20440;-75
2021/11/03 12:29:42;;;;;;;6.63;1.53;;;10.80;99.90;;;;;;5039849;28;20423;-75
2021/11/03 12:32:39;;;;;;;2.90;1.70;;;10.80;99.90;;;;;;5048717;28;20491;-75
2021/11/03 12:35:49;;;;;;;4.80;1.83;;;10.70;99.90;;;;;;5051854;28;20498;-75
2021/11/03 12:38:55;;;;;;;2.67;1.83;;;10.60;99.90;;;;;;5051468;28;20419;-75
2021/11/03 12:41:46;;;;;;;4.50;2.20;;;10.60;99.90;;;;;;5051772;28;20610;-75
2021/11/03 12:44:39;;;;;;;10.03;1.90;;;10.60;99.90;;;;;;5051713;28;20412;-75
2021/11/03 12:47:28;;;;;;;4.77;2.50;;;10.70;99.90;;;;;;5051923;28;20554;-75
2021/11/03 12:50:17;;;;;;;10.00;2.10;;;10.70;99.90;;;;;;5051410;28;20888;-75
2021/11/03 12:53:15;;;;;;;5.30;3.07;;;10.70;99.90;;;;;;5051524;28;20859;-75
2021/11/03 12:56:03;;;;;;;3.50;2.43;;;10.80;99.90;;;;;;5051290;28;20420;-75
2021/11/03 12:58:53;;;;;;;3.97;2.50;;;10.80;99.90;;;;;;5045486;28;20774;-75
2021/11/03 13:01:47;;;;;;;3.50;2.20;;;10.90;99.90;;;;;;5043161;28;20423;-75
2021/11/03 13:04:36;;;;;;;3.60;2.43;;;10.90;99.90;;;;;;5051622;28;20411;-76
2021/11/03 13:07:25;;;;;;;3.30;2.53;;;10.90;99.90;;;;;;5051485;28;20415;-76
2021/11/03 13:10:19;;;;;;;2.80;1.87;;;10.80;99.90;;;;;;5036455;28;20536;-75
2021/11/03 13:13:07;;;;;;;5.43;2.03;;;10.80;99.90;;;;;;5031410;28;20468;-75
2021/11/03 13:15:58;;;;;;;3.40;1.67;;;10.70;99.90;;;;;;5031989;28;20933;-76
2021/11/03 13:18:46;;;;;;;3.43;1.73;;;10.80;99.90;;;;;;5031195;28;20425;-76
2021/11/03 13:21:34;;;;;;;2.27;1.50;;;10.80;99.90;;;;;;5031496;28;20783;-76
2021/11/03 13:24:24;;;;;;;2.27;1.30;;;10.90;99.90;;;;;;5031393;28;20428;-76
2021/11/03 13:27:17;;;;;;;2.93;1.50;;;10.80;99.90;;;;;;5026966;28;20508;-75
2021/11/03 13:30:06;;;;;;;3.50;1.70;;;10.60;99.90;;;;;;5038956;28;20523;-75
2021/11/03 13:32:59;;;;;;;2.80;1.50;;;10.60;99.90;;;;;;5011615;28;20544;-75
2021/11/03 13:35:58;;;;;;;1.80;1.50;;;10.70;99.90;;;;;;5011709;28;20538;-75
2021/11/03 13:38:54;;;;;;;4.63;1.80;;;10.70;99.90;;;;;;5011114;28;20468;-75
2021/11/03 13:41:42;;;;;;;4.47;1.60;;;10.70;99.90;;;;;;5011713;28;20422;-76
2021/11/03 13:44:41;;;;;;;8.77;2.23;;;10.70;99.90;;;;;;5011529;28;20429;-76
2021/11/03 13:47:29;;;;;;;3.03;1.70;;;10.80;99.90;;;;;;5011662;28;20489;-76
2021/11/03 13:50:24;;;;;;;3.77;1.70;;;10.80;99.90;;;;;;5011085;28;21042;-76
2021/11/03 13:53:21;;;;;;;3.10;1.83;;;10.80;99.90;;;;;;5011283;28;20469;-76
2021/11/03 13:56:16;;;;;;;2.97;1.60;;;10.80;99.90;;;;;;5011377;28;20417;-76
2021/11/03 13:59:23;;;;;;;3.07;1.40;;;10.70;99.90;;;;;;5027126;28;20420;-75
2021/11/03 14:02:35;;;;;;;3.30;1.70;;;10.60;99.90;;;;;;5039765;28;20451;-76
2021/11/03 14:05:42;;;;;;;2.00;1.57;;;10.60;99.90;;;;;;5050990;28;20527;-76
2021/11/03 14:08:31;;;;;;;5.33;1.90;;;10.60;99.90;;;;;;5039418;28;20458;-75
2021/11/03 14:11:18;;;;;;;8.13;1.83;;;10.60;99.90;;;;;;5034499;28;20435;-76
2021/11/03 14:14:04;;;;;;;3.20;1.50;;;10.70;99.90;;;;;;5034422;28;20468;-76
2021/11/03 14:16:53;;;;;;;4.80;1.83;;;10.70;99.90;;;;;;5034434;28;20933;-76
2021/11/03 14:19:43;;;;;;;3.93;1.50;;;10.70;99.90;;;;;;5034047;28;20421;-76
2021/11/03 14:22:33;;;;;;;5.23;2.60;;;10.80;99.90;;;;;;5034103;28;20491;-76
2021/11/03 14:25:23;;;;;;;7.33;1.73;;;10.80;99.90;;;;;;5034444;28;20424;-75
2021/11/03 14:28:12;;;;;;;7.83;1.70;;;10.80;99.90;;;;;;5034003;28;20428;-75
2021/11/03 14:31:00;;;;;;;2.77;1.43;;;10.80;99.90;;;;;;5035202;28;20499;-75
2021/11/03 14:33:47;;;;;;;3.97;1.73;;;10.60;99.90;;;;;;5034065;28;21116;-76
2021/11/03 14:36:33;;;;;;;7.30;2.90;;;10.60;99.90;;;;;;5034053;28;20572;-76
2021/11/03 14:39:21;;;;;;;5.40;1.60;;;10.70;99.90;;;;;;5033699;28;20436;-75
2021/11/03 14:42:09;;;;;;;7.37;2.00;;;10.70;99.90;;;;;;5033878;28;20589;-76
2021/11/03 14:44:54;;;;;;;4.63;1.77;;;10.70;99.90;;;;;;5034018;28;20567;-75
2021/11/03 14:47:41;;;;;;;2.90;1.83;;;10.70;99.90;;;;;;5033990;28;20789;-76